createdAt,value
2017-11-17T00:02:08.440Z,101217
2017-11-17T00:12:12.407Z,101207
2017-11-17T00:22:16.357Z,101219
2017-11-17T00:32:20.287Z,101211
2017-11-17T00:42:23.593Z,101209
2017-11-17T00:52:26.749Z,101220
2017-11-17T01:02:29.981Z,101218
2017-11-17T01:12:33.150Z,101229
2017-11-17T01:22:36.332Z,101220
2017-11-17T01:32:39.506Z,101232
2017-11-17T01:42:42.757Z,101232
2017-11-17T01:52:45.946Z,101227
2017-11-17T02:02:49.134Z,101225
2017-11-17T02:12:52.298Z,101233
2017-11-17T02:22:55.476Z,101232
2017-11-17T02:32:58.694Z,101218
2017-11-17T02:43:01.837Z,101225
2017-11-17T02:53:05.010Z,101213
2017-11-17T03:03:08.128Z,101226
2017-11-17T03:13:11.450Z,101216
2017-11-17T03:23:14.615Z,101209
2017-11-17T03:33:17.826Z,101233
2017-11-17T03:43:21.013Z,101230
2017-11-17T03:53:24.210Z,101227
2017-11-17T04:03:27.360Z,101223
2017-11-17T04:13:30.622Z,101228
2017-11-17T04:23:33.798Z,101233
2017-11-17T04:33:36.980Z,101236
2017-11-17T04:43:40.141Z,101257
2017-11-17T04:53:44.098Z,101245
2017-11-17T05:03:48.040Z,101254
2017-11-17T05:13:51.228Z,101263
2017-11-17T05:23:54.460Z,101274
2017-11-17T05:33:57.658Z,101266
2017-11-17T05:44:00.866Z,101265
2017-11-17T05:54:04.042Z,101289
2017-11-17T06:04:08.007Z,101276
2017-11-17T06:14:11.964Z,101279
2017-11-17T06:24:16.079Z,101279
2017-11-17T06:34:19.273Z,101302
2017-11-17T06:44:22.479Z,101305
2017-11-17T06:54:25.729Z,101304
2017-11-17T07:04:29.707Z,101321
2017-11-17T07:14:32.890Z,101321
2017-11-17T07:24:36.083Z,101338
2017-11-17T07:34:39.287Z,101340
2017-11-17T07:44:42.524Z,101334
2017-11-17T07:54:45.703Z,101338
2017-11-17T08:04:48.899Z,101329
2017-11-17T08:14:52.086Z,101350
2017-11-17T08:24:55.440Z,101342
2017-11-17T08:34:58.633Z,101355
2017-11-17T08:45:02.584Z,101351
2017-11-17T08:55:06.527Z,101364
2017-11-17T09:05:09.764Z,101364
2017-11-17T09:15:12.946Z,101369
2017-11-17T09:25:16.122Z,101365
2017-11-17T09:35:19.311Z,101395
2017-11-17T09:45:22.495Z,101375
2017-11-17T09:55:25.682Z,101387
2017-11-17T10:05:29.635Z,101385
2017-11-17T10:15:33.637Z,101396
2017-11-17T10:25:36.775Z,101393
2017-11-17T10:35:39.996Z,101380
2017-11-17T10:45:43.193Z,101368
2017-11-17T10:55:47.163Z,101361
2017-11-17T11:05:50.335Z,101357
2017-11-17T11:15:53.538Z,101358
2017-11-17T11:25:56.695Z,101342
2017-11-17T11:35:59.880Z,101347
2017-11-17T11:46:03.060Z,101343
2017-11-17T11:56:06.263Z,101346
2017-11-17T12:06:09.487Z,101338
2017-11-17T12:16:12.682Z,101319
2017-11-17T12:26:15.884Z,101323
2017-11-17T12:36:19.843Z,101331
2017-11-17T12:46:23.883Z,101320
2017-11-17T12:56:27.168Z,101313
2017-11-17T13:06:30.419Z,101314
2017-11-17T13:16:33.595Z,101307
2017-11-17T13:26:36.786Z,101304
2017-11-17T13:36:40.012Z,101294
2017-11-17T13:46:43.187Z,101301
2017-11-17T13:56:46.395Z,101300
2017-11-17T14:06:49.603Z,101298
2017-11-17T14:16:53.612Z,101299
2017-11-17T14:26:56.805Z,101306
2017-11-17T14:37:00.754Z,101298
2017-11-17T14:47:04.726Z,101293
2017-11-17T14:57:07.892Z,101297
2017-11-17T15:07:11.073Z,101288
2017-11-17T15:17:14.227Z,101296
2017-11-17T15:27:18.192Z,101280
2017-11-17T15:37:21.407Z,101290
2017-11-17T15:47:25.354Z,101305
2017-11-17T15:57:28.492Z,101296
2017-11-17T16:07:32.459Z,101302
2017-11-17T16:17:36.438Z,101306
2017-11-17T16:27:39.768Z,101299
2017-11-17T16:37:43.734Z,101308
2017-11-17T16:47:47.774Z,101305
2017-11-17T16:57:51.720Z,101297
2017-11-17T17:07:54.921Z,101299
2017-11-17T17:17:58.079Z,101295
2017-11-17T17:28:01.251Z,101298
2017-11-17T17:38:04.410Z,101293
2017-11-17T17:48:07.627Z,101291
2017-11-17T17:58:10.831Z,101267
2017-11-17T18:08:13.991Z,101269
2017-11-17T18:18:17.914Z,101271
2017-11-17T18:28:21.095Z,101265
2017-11-17T18:38:24.251Z,101265
2017-11-17T18:48:27.425Z,101268
2017-11-17T18:58:30.666Z,101267
2017-11-17T19:08:33.819Z,101260
2017-11-17T19:18:37.811Z,101249
2017-11-17T19:28:41.011Z,101257
2017-11-17T19:38:44.237Z,101253
2017-11-17T19:48:47.418Z,101260
2017-11-17T19:58:50.667Z,101242
2017-11-17T20:08:53.877Z,101262
2017-11-17T20:18:58.013Z,101263
2017-11-17T20:29:01.405Z,101267
2017-11-17T20:39:04.633Z,101275
2017-11-17T20:49:07.850Z,101273
2017-11-17T20:59:11.851Z,101268
2017-11-17T21:09:15.879Z,101257
2017-11-17T21:19:19.823Z,101256
2017-11-17T21:29:23.819Z,101244
2017-11-17T21:39:26.974Z,101229
2017-11-17T21:49:30.237Z,101226
2017-11-17T21:59:33.440Z,101203
2017-11-17T22:09:36.660Z,101184
2017-11-17T22:19:39.878Z,101182
2017-11-17T22:29:43.094Z,101200
2017-11-17T22:39:46.298Z,101201
2017-11-17T22:49:49.505Z,101191
2017-11-17T22:59:52.732Z,101196
2017-11-17T23:09:55.936Z,101199
2017-11-17T23:19:59.096Z,101203
2017-11-17T23:30:03.062Z,101188
2017-11-17T23:40:06.206Z,101192
2017-11-17T23:50:09.354Z,101181
